createdAt,value
2017-12-23T00:00:49.713Z,102219
2017-12-23T00:01:50.734Z,102222
2017-12-23T00:02:50.974Z,102215
2017-12-23T00:03:49.861Z,102207
2017-12-23T00:04:49.876Z,102204
2017-12-23T00:05:49.962Z,102215
2017-12-23T00:06:50.099Z,102216
2017-12-23T00:07:51.112Z,102211
2017-12-23T00:08:51.130Z,102210
2017-12-23T00:09:50.263Z,102207
2017-12-23T00:10:51.259Z,102207
2017-12-23T00:11:51.255Z,102209
2017-12-23T00:12:50.316Z,102212
2017-12-23T00:13:50.369Z,102211
2017-12-23T00:14:51.372Z,102209
2017-12-23T00:15:51.390Z,102210
2017-12-23T00:16:51.467Z,102203
2017-12-23T00:17:51.401Z,102199
2017-12-23T00:18:50.530Z,102194
2017-12-23T00:19:51.551Z,102193
2017-12-23T00:20:50.634Z,102189
2017-12-23T00:21:50.574Z,102196
2017-12-23T00:22:50.641Z,102198
2017-12-23T00:23:50.676Z,102195
2017-12-23T00:24:50.842Z,102195
2017-12-23T00:25:51.858Z,102199
2017-12-23T00:26:50.829Z,102191
2017-12-23T00:27:50.926Z,102185
2017-12-23T00:28:50.952Z,102192
2017-12-23T00:29:51.032Z,102189
2017-12-23T00:30:52.104Z,102193
2017-12-23T00:31:51.135Z,102194
2017-12-23T00:32:51.157Z,102198
2017-12-23T00:33:51.145Z,102200
2017-12-23T00:34:51.182Z,102199
2017-12-23T00:35:52.309Z,102205
2017-12-23T00:36:51.420Z,102188
2017-12-23T00:37:51.354Z,102203
2017-12-23T00:38:52.427Z,102198
2017-12-23T00:39:52.501Z,102193
2017-12-23T00:40:51.587Z,102205
2017-12-23T00:41:52.635Z,102202
2017-12-23T00:42:51.667Z,102197
2017-12-23T00:43:52.563Z,102192
2017-12-23T00:44:52.576Z,102185
2017-12-23T00:45:52.782Z,102187
2017-12-23T00:46:51.884Z,102181
2017-12-23T00:47:51.841Z,102177
2017-12-23T00:48:51.844Z,102178
2017-12-23T00:49:51.907Z,102176
2017-12-23T00:50:51.962Z,102179
2017-12-23T00:51:52.100Z,102173
2017-12-23T00:52:52.024Z,102174
2017-12-23T00:53:52.128Z,102172
2017-12-23T00:54:52.139Z,102170
2017-12-23T00:55:52.213Z,102177
2017-12-23T00:56:52.380Z,102177
2017-12-23T00:57:52.351Z,102177
2017-12-23T00:58:52.468Z,102170
2017-12-23T00:59:53.331Z,102169
2017-12-23T01:00:52.560Z,102169
2017-12-23T01:01:52.510Z,102167
2017-12-23T01:02:52.609Z,102166
2017-12-23T01:03:53.764Z,102167
2017-12-23T01:04:53.687Z,102166
2017-12-23T01:05:52.896Z,102167
2017-12-23T01:06:52.799Z,102169
2017-12-23T01:07:53.885Z,102164
2017-12-23T01:08:53.963Z,102168
2017-12-23T01:09:53.985Z,102161
2017-12-23T01:10:53.031Z,102160
2017-12-23T01:11:53.948Z,102156
2017-12-23T01:12:53.127Z,102152
2017-12-23T01:13:53.019Z,102152
2017-12-23T01:14:53.230Z,102146
2017-12-23T01:15:53.230Z,102139
2017-12-23T01:16:53.468Z,102145
2017-12-23T01:17:53.449Z,102136
2017-12-23T01:18:54.441Z,102150
2017-12-23T01:19:53.456Z,102147
2017-12-23T01:20:54.580Z,102151
2017-12-23T01:21:53.599Z,102148
2017-12-23T01:22:53.668Z,102150
2017-12-23T01:23:53.834Z,102147
2017-12-23T01:24:54.803Z,102147
2017-12-23T01:25:54.841Z,102147
2017-12-23T01:26:53.965Z,102148
2017-12-23T01:27:54.959Z,102138
2017-12-23T01:28:54.021Z,102138
2017-12-23T01:29:55.078Z,102144
2017-12-23T01:32:41.480Z,102146
2017-12-23T01:33:42.566Z,102150
2017-12-23T01:34:41.504Z,102143
2017-12-23T01:35:41.696Z,102148
2017-12-23T01:36:41.683Z,102144
2017-12-23T01:37:41.733Z,102140
2017-12-23T01:38:42.712Z,102134
2017-12-23T01:39:41.913Z,102132
2017-12-23T01:40:41.949Z,102129
2017-12-23T01:41:42.928Z,102118
2017-12-23T01:42:43.007Z,102124
2017-12-23T01:43:41.959Z,102110
2017-12-23T01:44:42.120Z,102117
2017-12-23T01:45:42.049Z,102109
2017-12-23T01:46:42.226Z,102117
2017-12-23T01:47:42.162Z,102117
2017-12-23T01:48:42.355Z,102115
2017-12-23T01:49:42.385Z,102111
2017-12-23T01:50:42.274Z,102114
2017-12-23T01:51:42.285Z,102115
2017-12-23T01:52:42.360Z,102116
2017-12-23T01:53:42.476Z,102112
2017-12-23T01:54:43.341Z,102107
2017-12-23T01:55:42.592Z,102110
2017-12-23T01:56:42.642Z,102110
2017-12-23T01:57:42.571Z,102111
2017-12-23T01:58:42.678Z,102110
2017-12-23T01:59:42.723Z,102104
2017-12-23T02:00:42.680Z,102104
2017-12-23T02:01:42.720Z,102101
2017-12-23T02:02:42.825Z,102095
2017-12-23T02:03:43.782Z,102094
2017-12-23T02:04:42.913Z,102092
2017-12-23T02:05:43.936Z,102085
2017-12-23T02:06:42.855Z,102090
2017-12-23T02:07:43.011Z,102089
2017-12-23T02:08:43.073Z,102085
2017-12-23T02:09:43.986Z,102084
2017-12-23T02:10:43.117Z,102081
2017-12-23T02:11:43.214Z,102076
2017-12-23T02:12:44.377Z,102075
2017-12-23T02:13:43.389Z,102080
2017-12-23T02:14:44.522Z,102078
2017-12-23T02:15:44.425Z,102075
2017-12-23T02:16:44.506Z,102075
2017-12-23T02:17:43.597Z,102068
2017-12-23T02:18:43.775Z,102068
2017-12-23T02:19:43.670Z,102083
2017-12-23T02:20:43.753Z,102083
2017-12-23T02:21:43.796Z,102081
2017-12-23T02:22:43.804Z,102076
2017-12-23T02:23:44.934Z,102066
2017-12-23T02:24:44.901Z,102067
2017-12-23T02:25:44.043Z,102062
2017-12-23T02:26:44.059Z,102056
2017-12-23T02:27:44.030Z,102065
2017-12-23T02:28:44.076Z,102059
2017-12-23T02:29:44.156Z,102063
2017-12-23T02:30:45.297Z,102062
2017-12-23T02:31:45.248Z,102060
2017-12-23T02:32:44.343Z,102058
2017-12-23T02:33:45.495Z,102054
2017-12-23T02:34:44.456Z,102059
2017-12-23T02:35:44.494Z,102045
2017-12-23T02:36:45.473Z,102045
2017-12-23T02:37:44.727Z,102042
2017-12-23T02:38:44.669Z,102038
2017-12-23T02:39:44.782Z,102038
2017-12-23T02:40:45.844Z,102046
2017-12-23T02:41:44.987Z,102049
2017-12-23T02:42:45.027Z,102045
2017-12-23T02:43:45.049Z,102046
2017-12-23T02:44:46.071Z,102044
2017-12-23T02:45:45.205Z,102045
2017-12-23T02:46:46.184Z,102045
2017-12-23T02:47:45.140Z,102050
2017-12-23T02:48:45.217Z,102047
2017-12-23T02:49:45.273Z,102046
2017-12-23T02:50:45.307Z,102047
2017-12-23T02:51:46.475Z,102048
2017-12-23T02:52:45.588Z,102046
2017-12-23T02:53:45.520Z,102049
2017-12-23T02:54:45.587Z,102048
2017-12-23T02:55:45.630Z,102050
2017-12-23T02:56:45.618Z,102043
2017-12-23T02:57:45.706Z,102046
2017-12-23T02:58:45.784Z,102044
2017-12-23T02:59:45.992Z,102046
2017-12-23T03:00:45.906Z,102045
2017-12-23T03:01:45.949Z,102041
2017-12-23T03:02:46.041Z,102042
2017-12-23T03:03:47.033Z,102043
2017-12-23T03:04:47.088Z,102043
2017-12-23T03:05:46.213Z,102046
2017-12-23T03:06:47.282Z,102042
2017-12-23T03:07:46.263Z,102047
2017-12-23T03:08:46.398Z,102047
2017-12-23T03:09:46.430Z,102048
2017-12-23T03:10:46.498Z,102049
2017-12-23T03:11:47.497Z,102034
2017-12-23T03:12:46.446Z,102038
2017-12-23T03:13:47.510Z,102031
2017-12-23T03:14:46.521Z,102041
2017-12-23T03:15:47.521Z,102034
2017-12-23T03:16:46.620Z,102044
2017-12-23T03:17:46.677Z,102033
2017-12-23T03:18:46.696Z,102032
2017-12-23T03:19:46.779Z,102040
2017-12-23T03:20:46.878Z,102048
2017-12-23T03:21:47.877Z,102037
2017-12-23T03:22:47.910Z,102034
2017-12-23T03:23:46.920Z,102035
2017-12-23T03:24:48.098Z,102039
2017-12-23T03:25:47.165Z,102040
2017-12-23T03:26:48.041Z,102042
2017-12-23T03:27:48.152Z,102041
2017-12-23T03:28:47.207Z,102040
2017-12-23T03:29:47.270Z,102037
2017-12-23T03:30:47.307Z,102038
2017-12-23T03:31:48.381Z,102031
2017-12-23T03:32:47.358Z,102031
2017-12-23T03:33:47.329Z,102032
2017-12-23T03:34:48.469Z,102033
2017-12-23T03:35:47.435Z,102028
2017-12-23T03:36:47.577Z,102029
2017-12-23T03:37:48.613Z,102028
2017-12-23T03:38:47.574Z,102033
2017-12-23T03:39:47.694Z,102031
2017-12-23T03:40:47.693Z,102031
2017-12-23T03:41:47.697Z,102033
2017-12-23T03:42:48.693Z,102034
2017-12-23T03:43:48.868Z,102034
2017-12-23T03:44:48.881Z,102030
2017-12-23T03:45:48.984Z,102032
2017-12-23T03:46:47.899Z,102035
2017-12-23T03:47:47.956Z,102030
2017-12-23T03:48:48.031Z,102034
2017-12-23T03:49:49.022Z,102029
2017-12-23T03:50:48.092Z,102039
2017-12-23T03:51:49.158Z,102038
2017-12-23T03:52:48.304Z,102045
2017-12-23T03:53:49.350Z,102048
2017-12-23T03:54:49.443Z,102039
2017-12-23T03:55:48.483Z,102038
2017-12-23T03:56:48.564Z,102033
2017-12-23T03:57:48.552Z,102040
2017-12-23T03:58:48.557Z,102030
2017-12-23T03:59:49.701Z,102029
2017-12-23T04:00:48.770Z,102028
2017-12-23T04:01:48.694Z,102031
2017-12-23T04:02:48.829Z,102035
2017-12-23T04:03:48.937Z,102027
2017-12-23T04:04:48.958Z,102030
2017-12-23T04:05:48.992Z,102037
2017-12-23T04:06:48.965Z,102030
2017-12-23T04:07:50.140Z,102037
2017-12-23T04:08:49.187Z,102041
2017-12-23T04:09:49.286Z,102044
2017-12-23T04:10:49.183Z,102041
2017-12-23T04:11:49.282Z,102036
2017-12-23T04:12:49.376Z,102040
2017-12-23T04:13:50.530Z,102037
2017-12-23T04:14:49.481Z,102035
2017-12-23T04:15:49.600Z,102037
2017-12-23T04:16:49.556Z,102038
2017-12-23T04:17:50.655Z,102041
2017-12-23T04:18:49.732Z,102040
2017-12-23T04:19:49.655Z,102038
2017-12-23T04:20:50.691Z,102040
2017-12-23T04:21:49.824Z,102044
2017-12-23T04:22:49.964Z,102042
2017-12-23T04:23:49.986Z,102046
2017-12-23T04:24:51.042Z,102036
2017-12-23T04:25:50.100Z,102040
2017-12-23T04:26:50.102Z,102039
2017-12-23T04:27:50.154Z,102036
2017-12-23T04:28:50.347Z,102042
2017-12-23T04:29:51.399Z,102036
2017-12-23T04:30:50.346Z,102040
2017-12-23T04:31:51.504Z,102028
2017-12-23T04:32:51.603Z,102037
2017-12-23T04:33:50.552Z,102037
2017-12-23T04:34:51.603Z,102037
2017-12-23T04:35:50.708Z,102027
2017-12-23T04:36:51.795Z,102035
2017-12-23T04:37:50.779Z,102039
2017-12-23T04:38:50.868Z,102039
2017-12-23T04:39:52.021Z,102034
2017-12-23T04:40:52.861Z,102042
2017-12-23T04:41:51.871Z,102041
2017-12-23T04:42:51.123Z,102038
2017-12-23T04:43:51.191Z,102026
2017-12-23T04:44:52.328Z,102032
2017-12-23T04:45:52.356Z,102026
2017-12-23T04:46:52.430Z,102026
2017-12-23T04:47:52.455Z,102022
2017-12-23T04:48:52.488Z,102025
2017-12-23T04:49:52.515Z,102032
2017-12-23T04:50:52.607Z,102028
2017-12-23T04:51:51.648Z,102029
2017-12-23T04:52:51.752Z,102028
2017-12-23T04:53:52.732Z,102032
2017-12-23T04:54:51.642Z,102037
2017-12-23T04:55:52.772Z,102037
2017-12-23T04:56:51.742Z,102034
2017-12-23T04:57:51.851Z,102035
2017-12-23T04:58:51.926Z,102032
2017-12-23T04:59:52.813Z,102034
2017-12-23T05:00:52.830Z,102036
2017-12-23T05:01:51.887Z,102035
2017-12-23T05:02:51.945Z,102033
2017-12-23T05:03:52.042Z,102037
2017-12-23T05:04:53.038Z,102029
2017-12-23T05:05:53.162Z,102030
2017-12-23T05:06:52.136Z,102033
2017-12-23T05:07:52.290Z,102032
2017-12-23T05:08:53.296Z,102037
2017-12-23T05:09:52.239Z,102037
2017-12-23T05:10:52.274Z,102032
2017-12-23T05:11:52.385Z,102031
2017-12-23T05:12:53.476Z,102027
2017-12-23T05:13:53.539Z,102026
2017-12-23T05:14:53.543Z,102015
2017-12-23T05:15:52.574Z,102023
2017-12-23T05:16:52.678Z,102013
2017-12-23T05:17:52.673Z,102012
2017-12-23T05:18:53.756Z,102023
2017-12-23T05:19:53.789Z,102011
2017-12-23T05:20:53.658Z,102010
2017-12-23T05:21:53.831Z,102006
2017-12-23T05:22:53.753Z,102009
2017-12-23T05:23:53.854Z,102003
2017-12-23T05:24:54.028Z,102008
2017-12-23T05:25:54.001Z,101998
2017-12-23T05:26:53.147Z,102007
2017-12-23T05:27:54.307Z,102001
2017-12-23T05:28:54.225Z,102004
2017-12-23T05:29:53.360Z,101993
2017-12-23T05:30:53.734Z,101996
2017-12-23T05:31:53.431Z,101993
2017-12-23T05:32:54.472Z,101998
2017-12-23T05:33:54.456Z,101997
2017-12-23T05:34:53.610Z,101999
2017-12-23T05:35:53.553Z,102002
2017-12-23T05:36:53.778Z,102011
2017-12-23T05:37:53.696Z,102010
2017-12-23T05:38:54.801Z,102007
2017-12-23T05:39:53.876Z,102006
2017-12-23T05:40:54.952Z,102007
2017-12-23T05:41:54.085Z,101998
2017-12-23T05:42:54.991Z,102003
2017-12-23T05:43:54.221Z,102000
2017-12-23T05:44:55.200Z,101985
2017-12-23T05:45:54.175Z,101990
2017-12-23T05:46:54.180Z,101985
2017-12-23T05:47:54.265Z,101977
2017-12-23T05:48:54.388Z,101984
2017-12-23T05:49:54.315Z,101985
2017-12-23T05:50:55.374Z,101978
2017-12-23T05:52:40.858Z,101989
2017-12-23T05:53:41.913Z,101986
2017-12-23T05:54:40.837Z,101987
2017-12-23T05:55:40.888Z,101985
2017-12-23T05:56:41.006Z,101989
2017-12-23T05:57:40.905Z,101978
2017-12-23T05:58:40.960Z,101983
2017-12-23T05:59:40.971Z,101979
2017-12-23T06:00:41.110Z,101981
2017-12-23T06:01:41.150Z,101982
2017-12-23T06:02:41.105Z,101981
2017-12-23T06:03:41.144Z,101970
2017-12-23T06:04:41.201Z,101977
2017-12-23T06:05:42.246Z,101976
2017-12-23T06:06:41.405Z,101974
2017-12-23T06:07:42.430Z,101970
2017-12-23T06:08:42.353Z,101969
2017-12-23T06:09:42.569Z,101959
2017-12-23T06:10:41.539Z,101969
2017-12-23T06:11:41.602Z,101966
2017-12-23T06:12:41.605Z,101971
2017-12-23T06:13:41.671Z,101970
2017-12-23T06:14:41.694Z,101975
2017-12-23T06:15:41.867Z,101970
2017-12-23T06:16:41.798Z,101980
2017-12-23T06:17:42.000Z,101974
2017-12-23T06:18:41.954Z,101963
2017-12-23T06:19:42.008Z,101972
2017-12-23T06:20:42.987Z,101967
2017-12-23T06:21:42.190Z,101968
2017-12-23T06:22:43.215Z,101966
2017-12-23T06:23:42.147Z,101965
2017-12-23T06:24:42.190Z,101958
2017-12-23T06:25:43.256Z,101955
2017-12-23T06:26:43.352Z,101965
2017-12-23T06:27:42.309Z,101960
2017-12-23T06:28:42.523Z,101961
2017-12-23T06:29:42.477Z,101953
2017-12-23T06:30:43.630Z,101952
2017-12-23T06:31:42.729Z,101950
2017-12-23T06:32:42.729Z,101953
2017-12-23T06:33:42.716Z,101960
2017-12-23T06:34:42.858Z,101959
2017-12-23T06:35:42.862Z,101961
2017-12-23T06:36:42.872Z,101962
2017-12-23T06:37:42.938Z,101951
2017-12-23T06:38:42.965Z,101956
2017-12-23T06:39:42.993Z,101955
2017-12-23T06:40:44.005Z,101956
2017-12-23T06:41:43.045Z,101957
2017-12-23T06:42:43.212Z,101955
2017-12-23T06:43:43.238Z,101955
2017-12-23T06:44:44.274Z,101953
2017-12-23T06:45:44.281Z,101951
2017-12-23T06:46:44.307Z,101949
2017-12-23T06:47:43.278Z,101950
2017-12-23T06:48:43.464Z,101953
2017-12-23T06:49:43.448Z,101951
2017-12-23T06:50:43.561Z,101948
2017-12-23T06:51:44.560Z,101943
2017-12-23T06:52:43.560Z,101950
2017-12-23T06:53:44.699Z,101948
2017-12-23T06:54:44.663Z,101952
2017-12-23T06:55:44.853Z,101942
2017-12-23T06:56:44.855Z,101950
2017-12-23T06:57:44.803Z,101957
2017-12-23T06:58:43.926Z,101955
2017-12-23T06:59:43.960Z,101944
2017-12-23T07:00:44.123Z,101948
2017-12-23T07:01:44.981Z,101947
2017-12-23T07:02:45.195Z,101947
2017-12-23T07:03:44.298Z,101944
2017-12-23T07:04:45.333Z,101946
2017-12-23T07:05:45.332Z,101944
2017-12-23T07:06:44.398Z,101942
2017-12-23T07:07:44.344Z,101939
2017-12-23T07:08:44.551Z,101944
2017-12-23T07:09:44.576Z,101950
2017-12-23T07:10:44.526Z,101944
2017-12-23T07:11:44.687Z,101936
2017-12-23T07:12:44.748Z,101944
2017-12-23T07:13:44.839Z,101941
2017-12-23T07:14:44.925Z,101941
2017-12-23T07:15:45.820Z,101946
2017-12-23T07:16:45.965Z,101940
2017-12-23T07:17:46.017Z,101943
2017-12-23T07:18:44.944Z,101933
2017-12-23T07:19:44.996Z,101943
2017-12-23T07:20:46.175Z,101948
2017-12-23T07:21:45.281Z,101947
2017-12-23T07:22:46.343Z,101946
2017-12-23T07:23:45.417Z,101940
2017-12-23T07:24:45.389Z,101950
2017-12-23T07:25:46.539Z,101941
2017-12-23T07:26:45.450Z,101950
2017-12-23T07:27:45.503Z,101945
2017-12-23T07:28:45.583Z,101946
2017-12-23T07:29:46.633Z,101948
2017-12-23T07:30:46.729Z,101957
2017-12-23T07:31:46.762Z,101959
2017-12-23T07:32:45.731Z,101958
2017-12-23T07:33:46.710Z,101957
2017-12-23T07:34:45.907Z,101966
2017-12-23T07:35:45.982Z,101968
2017-12-23T07:36:46.042Z,101962
2017-12-23T07:37:47.101Z,101969
2017-12-23T07:38:47.133Z,101970
2017-12-23T07:39:46.186Z,101967
2017-12-23T07:40:46.217Z,101971
2017-12-23T07:41:46.180Z,101969
2017-12-23T07:42:47.298Z,101968
2017-12-23T07:43:46.387Z,101972
2017-12-23T07:44:47.464Z,101974
2017-12-23T07:45:46.495Z,101972
2017-12-23T07:46:46.651Z,101980
2017-12-23T07:47:47.667Z,101972
2017-12-23T07:48:46.628Z,101976
2017-12-23T07:49:46.757Z,101976
2017-12-23T07:50:46.838Z,101972
2017-12-23T07:51:47.779Z,101974
2017-12-23T07:52:46.919Z,101970
2017-12-23T07:53:47.016Z,101971
2017-12-23T07:54:48.085Z,101970
2017-12-23T07:55:48.159Z,101975
2017-12-23T07:56:47.134Z,101961
2017-12-23T07:57:47.202Z,101970
2017-12-23T07:58:47.392Z,101977
2017-12-23T07:59:47.360Z,101983
2017-12-23T08:00:47.444Z,101983
2017-12-23T08:01:47.646Z,101989
2017-12-23T08:02:48.514Z,101987
2017-12-23T08:03:48.641Z,101985
2017-12-23T08:04:48.693Z,101991
2017-12-23T08:05:47.790Z,101991
2017-12-23T08:06:48.695Z,101991
2017-12-23T08:07:47.891Z,101996
2017-12-23T08:08:47.844Z,101997
2017-12-23T08:09:48.966Z,102001
2017-12-23T08:10:48.014Z,101991
2017-12-23T08:11:49.034Z,101991
2017-12-23T08:12:49.059Z,101999
2017-12-23T08:13:47.976Z,101997
2017-12-23T08:14:48.047Z,101996
2017-12-23T08:15:48.057Z,101998
2017-12-23T08:16:48.143Z,101995
2017-12-23T08:17:48.152Z,101996
2017-12-23T08:18:48.334Z,101995
2017-12-23T08:19:48.268Z,101995
2017-12-23T08:20:48.420Z,101993
2017-12-23T08:21:49.444Z,101995
2017-12-23T08:22:48.540Z,101990
2017-12-23T08:23:48.634Z,101993
2017-12-23T08:24:48.682Z,101985
2017-12-23T08:25:48.639Z,101985
2017-12-23T08:26:48.751Z,101980
2017-12-23T08:27:48.767Z,101974
2017-12-23T08:28:48.824Z,101983
2017-12-23T08:29:48.991Z,101982
2017-12-23T08:30:49.055Z,101984
2017-12-23T08:31:49.059Z,101980
2017-12-23T08:32:50.100Z,101976
2017-12-23T08:33:50.110Z,101975
2017-12-23T08:34:49.115Z,101980
2017-12-23T08:35:49.288Z,101978
2017-12-23T08:36:49.176Z,101981
2017-12-23T08:37:49.348Z,101983
2017-12-23T08:38:50.229Z,101982
2017-12-23T08:39:50.410Z,101983
2017-12-23T08:40:49.350Z,101978
2017-12-23T08:41:49.436Z,101979
2017-12-23T08:42:50.490Z,101986
2017-12-23T08:43:49.714Z,101988
2017-12-23T08:44:49.669Z,101981
2017-12-23T08:45:50.863Z,101983
2017-12-23T08:46:49.934Z,101989
2017-12-23T08:47:49.978Z,101980
2017-12-23T08:48:50.014Z,101977
2017-12-23T08:49:49.916Z,101969
2017-12-23T08:50:51.053Z,101972
2017-12-23T08:51:50.172Z,101978
2017-12-23T08:52:50.207Z,101971
2017-12-23T08:53:51.177Z,101982
2017-12-23T08:54:50.183Z,101971
2017-12-23T08:55:50.239Z,101982
2017-12-23T08:56:51.375Z,101977
2017-12-23T08:57:50.404Z,101984
2017-12-23T08:58:50.359Z,101983
2017-12-23T08:59:50.404Z,101980
2017-12-23T09:00:50.527Z,101979
2017-12-23T09:01:50.541Z,101981
2017-12-23T09:02:50.568Z,101974
2017-12-23T09:03:51.670Z,101969
2017-12-23T09:04:51.699Z,101971
2017-12-23T09:05:50.607Z,101970
2017-12-23T09:06:50.753Z,101963
2017-12-23T09:07:50.791Z,101966
2017-12-23T09:08:50.834Z,101973
2017-12-23T09:09:51.893Z,101967
2017-12-23T09:10:50.801Z,101972
2017-12-23T09:11:51.921Z,101968
2017-12-23T09:12:50.945Z,101970
2017-12-23T09:13:52.035Z,101967
2017-12-23T09:14:51.043Z,101968
2017-12-23T09:15:51.158Z,101957
2017-12-23T09:16:51.322Z,101967
2017-12-23T09:17:52.377Z,101960
2017-12-23T09:18:51.458Z,101966
2017-12-23T09:19:51.442Z,101970
2017-12-23T09:20:51.536Z,101967
2017-12-23T09:21:51.578Z,101967
2017-12-23T09:22:51.776Z,101966
2017-12-23T09:23:52.749Z,101963
2017-12-23T09:24:51.919Z,101961
2017-12-23T09:25:52.933Z,101957
2017-12-23T09:26:51.972Z,101959
2017-12-23T09:27:52.991Z,101956
2017-12-23T09:28:51.948Z,101955
2017-12-23T09:29:52.088Z,101957
2017-12-23T09:30:52.095Z,101950
2017-12-23T09:31:53.173Z,101951
2017-12-23T09:32:52.283Z,101950
2017-12-23T09:33:52.224Z,101951
2017-12-23T09:34:52.356Z,101947
2017-12-23T09:35:53.382Z,101950
2017-12-23T09:36:53.481Z,101950
2017-12-23T09:37:53.448Z,101949
2017-12-23T09:38:52.645Z,101942
2017-12-23T09:39:53.722Z,101957
2017-12-23T09:40:52.735Z,101947
2017-12-23T09:41:52.712Z,101950
2017-12-23T09:42:52.723Z,101946
2017-12-23T09:43:52.780Z,101948
2017-12-23T09:44:52.939Z,101949
2017-12-23T09:45:53.908Z,101941
2017-12-23T09:46:52.880Z,101949
2017-12-23T09:47:54.048Z,101954
2017-12-23T09:48:53.022Z,101952
2017-12-23T09:49:53.241Z,101954
2017-12-23T09:50:54.137Z,101956
2017-12-23T09:51:54.255Z,101958
2017-12-23T09:52:53.426Z,101956
2017-12-23T09:53:53.394Z,101955
2017-12-23T09:54:53.393Z,101956
2017-12-23T09:55:53.538Z,101954
2017-12-23T09:56:53.503Z,101942
2017-12-23T09:57:53.597Z,101944
2017-12-23T09:58:54.683Z,101946
2017-12-23T09:59:53.631Z,101947
2017-12-23T10:00:53.773Z,101948
2017-12-23T10:01:53.810Z,101947
2017-12-23T10:02:53.750Z,101944
2017-12-23T10:03:53.738Z,101945
2017-12-23T10:04:53.808Z,101935
2017-12-23T10:05:54.925Z,101938
2017-12-23T10:06:53.930Z,101930
2017-12-23T10:07:54.062Z,101925
2017-12-23T10:08:54.008Z,101920
2017-12-23T10:09:54.133Z,101925
2017-12-23T10:10:54.132Z,101925
2017-12-23T10:11:54.171Z,101924
2017-12-23T10:12:55.243Z,101926
2017-12-23T10:13:54.373Z,101913
2017-12-23T10:14:54.489Z,101933
2017-12-23T10:15:55.490Z,101927
2017-12-23T10:16:55.507Z,101926
2017-12-23T10:17:54.440Z,101917
2017-12-23T10:18:55.536Z,101922
2017-12-23T10:19:54.523Z,101926
2017-12-23T10:20:54.677Z,101926
2017-12-23T10:21:55.728Z,101915
2017-12-23T10:22:54.744Z,101921
2017-12-23T10:23:55.852Z,101925
2017-12-23T10:24:55.822Z,101924
2017-12-23T10:25:56.020Z,101924
2017-12-23T10:26:56.071Z,101926
2017-12-23T10:27:56.155Z,101929
2017-12-23T10:28:55.090Z,101929
2017-12-23T10:29:55.104Z,101931
2017-12-23T10:30:56.271Z,101927
2017-12-23T10:31:55.307Z,101927
2017-12-23T10:32:55.280Z,101932
2017-12-23T10:33:56.246Z,101926
2017-12-23T10:34:55.403Z,101926
2017-12-23T10:35:56.411Z,101921
2017-12-23T10:36:55.510Z,101923
2017-12-23T10:37:55.591Z,101926
2017-12-23T10:38:55.579Z,101919
2017-12-23T10:39:56.572Z,101916
2017-12-23T10:40:55.695Z,101924
2017-12-23T10:41:55.776Z,101924
2017-12-23T10:42:55.690Z,101923
2017-12-23T10:43:55.742Z,101927
2017-12-23T10:44:56.936Z,101925
2017-12-23T10:45:56.023Z,101924
2017-12-23T10:46:56.987Z,101921
2017-12-23T10:47:57.186Z,101922
2017-12-23T10:48:56.140Z,101914
2017-12-23T10:49:57.246Z,101915
2017-12-23T10:50:56.226Z,101926
2017-12-23T10:51:56.377Z,101922
2017-12-23T10:52:56.307Z,101918
2017-12-23T10:53:56.439Z,101925
2017-12-23T10:54:57.470Z,101925
2017-12-23T10:55:56.514Z,101928
2017-12-23T10:56:56.511Z,101916
2017-12-23T10:57:56.693Z,101911
2017-12-23T10:58:57.691Z,101917
2017-12-23T10:59:56.758Z,101917
2017-12-23T11:00:57.875Z,101914
2017-12-23T11:01:56.788Z,101918
2017-12-23T11:02:57.929Z,101916
2017-12-23T11:03:56.886Z,101903
2017-12-23T11:04:56.954Z,101917
2017-12-23T11:05:57.057Z,101905
2017-12-23T11:06:57.997Z,101904
2017-12-23T11:07:57.040Z,101899
2017-12-23T11:08:57.180Z,101900
2017-12-23T11:09:58.239Z,101901
2017-12-23T11:10:58.267Z,101897
2017-12-23T11:11:57.282Z,101896
2017-12-23T11:12:58.301Z,101892
2017-12-23T11:13:58.315Z,101893
2017-12-23T11:14:58.218Z,101898
2017-12-23T11:15:57.315Z,101901
2017-12-23T11:16:58.458Z,101900
2017-12-23T11:17:58.485Z,101904
2017-12-23T11:18:58.556Z,101903
2017-12-23T11:19:57.455Z,101899
2017-12-23T11:20:58.538Z,101895
2017-12-23T11:21:58.507Z,101892
2017-12-23T11:22:57.633Z,101900
2017-12-23T11:23:57.658Z,101899
2017-12-23T11:24:57.703Z,101908
2017-12-23T11:25:58.827Z,101895
2017-12-23T11:26:57.909Z,101894
2017-12-23T11:27:57.992Z,101885
2017-12-23T11:28:57.916Z,101895
2017-12-23T11:29:58.024Z,101894
2017-12-23T11:30:58.017Z,101878
2017-12-23T11:31:59.038Z,101884
2017-12-23T11:32:59.231Z,101889
2017-12-23T11:33:58.188Z,101887
2017-12-23T11:34:58.322Z,101883
2017-12-23T11:35:58.239Z,101883
2017-12-23T11:36:59.403Z,101881
2017-12-23T11:37:58.392Z,101881
2017-12-23T11:38:58.424Z,101886
2017-12-23T11:39:58.568Z,101877
2017-12-23T11:40:58.512Z,101874
2017-12-23T11:41:58.567Z,101883
2017-12-23T11:42:58.791Z,101889
2017-12-23T11:43:58.765Z,101883
2017-12-23T11:44:59.760Z,101880
2017-12-23T11:45:58.969Z,101880
2017-12-23T11:46:58.957Z,101884
2017-12-23T11:48:00.119Z,101880
2017-12-23T11:48:59.143Z,101878
2017-12-23T11:49:59.312Z,101881
2017-12-23T11:51:00.336Z,101878
2017-12-23T11:51:59.342Z,101880
2017-12-23T11:52:59.349Z,101882
2017-12-23T11:53:59.363Z,101882
2017-12-23T11:54:59.401Z,101882
2017-12-23T11:55:59.438Z,101872
2017-12-23T11:57:00.500Z,101884
2017-12-23T11:58:00.584Z,101874
2017-12-23T11:58:59.684Z,101880
2017-12-23T11:59:59.696Z,101878
2017-12-23T12:00:59.795Z,101879
2017-12-23T12:01:59.855Z,101876
2017-12-23T12:02:59.985Z,101876
2017-12-23T12:04:00.977Z,101879
2017-12-23T12:04:59.973Z,101880
2017-12-23T12:06:01.158Z,101884
2017-12-23T12:07:00.292Z,101888
2017-12-23T12:08:01.201Z,101884
2017-12-23T12:09:00.311Z,101887
2017-12-23T12:10:01.318Z,101880
2017-12-23T12:11:01.388Z,101878
2017-12-23T12:12:00.576Z,101884
2017-12-23T12:13:00.500Z,101879
2017-12-23T12:14:00.605Z,101878
2017-12-23T12:15:00.586Z,101876
2017-12-23T12:16:01.577Z,101883
2017-12-23T12:17:01.672Z,101874
2017-12-23T12:18:00.614Z,101876
2017-12-23T12:19:00.650Z,101882
2017-12-23T12:20:00.716Z,101864
2017-12-23T12:21:00.896Z,101865
2017-12-23T12:22:01.945Z,101865
2017-12-23T12:23:00.961Z,101861
2017-12-23T12:24:02.055Z,101874
2017-12-23T12:25:01.086Z,101873
2017-12-23T12:26:01.147Z,101866
2017-12-23T12:27:01.039Z,101873
2017-12-23T12:28:01.141Z,101865
2017-12-23T12:29:02.140Z,101865
2017-12-23T12:30:01.067Z,101867
2017-12-23T12:31:02.167Z,101857
2017-12-23T12:32:01.166Z,101858